• Join FlightAware (Why Join?)
  • Login
  • US Flag 
07:10PM EDT


 

Airport Tracker/Info


-or-


 

Live Flight TrackerFlight Track Log ✈ ASQ6122 ✈ 12-May-2013 ✈ KORD - KLEX

Flight Track Log - Related Links

Times and Time Zones

All times are in EDT time to prevent confusion due to time zone crossing. See the ASQ6122 flight status page for this flight to view local times or setup timezone preferences in your user account.

Time Position Orientation Groundspeed Altitude Reporting Facility
EDT Latitude Longitude Course Direction KTS MPH feet Rate Location/Type
10:03AM 41.9500 -87.9000 160° South 185 213 2,100  Level Chicago TRACON
10:04AM 41.8833 -87.8667 160° South 240 276 5,500 2,880 Climbing Chicago TRACON
10:06AM 41.7250 -87.7692 155° Southeast 302 348 11,300 2,520 Climbing Chicago Center
10:07AM 41.6397 -87.7131 154° Southeast 336 387 13,600 1,920 Climbing Chicago Center
10:08AM 41.5492 -87.6542 154° Southeast 357 411 15,300 1,500 Climbing Chicago Center
10:09AM 41.4514 -87.5900 154° Southeast 383 441 16,700 1,260 Climbing Chicago Center
10:10AM 41.3383 -87.5575 168° South 415 478 17,900 1,200 Climbing Chicago Center
10:11AM 41.2222 -87.5372 173° South 418 481 19,300 1,320 Climbing Chicago Center
10:12AM 41.1028 -87.5072 169° South 434 499 20,700 1,380 Climbing Chicago Center
10:13AM 40.9822 -87.4750 169° South 441 507 22,200 1,440 Climbing Chicago Center
10:14AM 40.8608 -87.4411 168° South 443 510 23,700 1,560 Climbing Chicago Center
10:15AM 40.7150 -87.4053 169° South 444 511 25,400 1,440 Climbing Chicago Center
10:16AM 40.5950 -87.3722 168° South 441 507 26,700 720 Climbing Chicago Center
10:17AM 40.4725 -87.3397 169° South 447 514 27,000 120 Climbing Chicago Center
10:18AM 40.3378 -87.2808 162° South 476 548 27,000  Level Chicago Center
10:19AM 40.2106 -87.2208 160° South 487 560 27,000  Level Chicago Center
10:20AM 40.1061 -87.1733 161° South 490 564 27,000  Level Indianapolis Center
10:21AM 39.9789 -87.1089 159° South 494 568 27,000  Level Indianapolis Center
10:22AM 39.8614 -87.0119 148° Southeast 503 579 27,000  Level Indianapolis Center
10:23AM 39.7439 -86.9128 147° Southeast 506 582 27,000  Level Indianapolis Center
10:24AM 39.6269 -86.8161 148° Southeast 506 582 27,000 -540 Level Indianapolis Center
10:25AM 39.4881 -86.7011 147° Southeast 500 575 26,000 -1,140 Descending Indianapolis Center
10:26AM 39.3747 -86.6061 147° Southeast 495 570 24,700 -1,140 Descending Indianapolis Center
10:27AM 39.2617 -86.5139 148° Southeast 488 562 23,700 -840 Descending Indianapolis Center
10:28AM 39.1503 -86.4217 147° Southeast 481 554 23,000 -360 Descending Indianapolis Center
10:29AM 39.0389 -86.3292 147° Southeast 480 552 23,000 -120 Level Indianapolis Center
10:30AM 38.9039 -86.2200 148° Southeast 481 554 22,800 -840 Descending Indianapolis Center
10:31AM 38.7961 -86.1322 148° Southeast 478 550 21,400 -1,500 Descending Indianapolis Center
10:32AM 38.6861 -86.0439 148° Southeast 466 536 19,800 -1,500 Descending Indianapolis Center
10:33AM 38.5861 -85.9419 141° Southeast 461 531 18,300 -1,380 Descending Indianapolis Center
10:34AM 38.5272 -85.7992 118° Southeast 457 526 17,000 -1,260 Descending Indianapolis Center
10:35AM 38.4694 -85.6575 117° Southeast 448 516 15,800 -1,020 Descending Indianapolis Center
10:36AM 38.4153 -85.5233 117° Southeast 427 491 15,000 -1,020 Descending Indianapolis Center
10:37AM 38.3603 -85.3897 118° Southeast 423 487 13,800 -1,320 Descending Indianapolis Center
10:38AM 38.2964 -85.2331 117° Southeast 411 473 12,300 -1,260 Descending Indianapolis Center
10:39AM 38.2547 -85.1217 115° Southeast 402 463 11,300 -1,500 Descending Indianapolis Center
10:40AM 38.2283 -84.9906 104° East 318 366 9,300 -2,040 Descending Indianapolis Center
10:41AM 38.2081 -84.8864 104° East 306 352 7,200 -1,620 Descending Indianapolis Center
10:43AM 38.1906 -84.7906 103° East 293 337 6,000 -1,200 Descending Indianapolis Center
10:44AM 38.1719 -84.7053 105° East 269 310 4,800 -1,080 Descending Indianapolis Center
10:45AM 38.1553 -84.6283 105° East 246 283 3,800 -840 Descending Indianapolis Center
10:46AM 38.1325 -84.5558 112° Southeast 232 267 3,100 -780 Descending Indianapolis Center
10:47AM 38.0764 -84.5586 182° South 203 234 2,300 -780 Descending Indianapolis Center